Terminal Aerodrome Forecast
Issued by NWS Wilmington, OH

Home | Current Version | Previous Version | Text Only | Print | Product List | Glossary On
Versions: 1 2 3 4 5 6 7 8 9 10 11 12 13 14
000
FTUS41 KILN 051700
TAFILN
TAF
KILN 051735Z 0518/0618 23010KT P6SM SCT070
     FM060000 21004KT P6SM SKC
      TEMPO 0610/0613 5SM BR
     FM061500 26006KT P6SM SCT050=

USA.gov is the U.S. government's official web portal to all federal, state and local government web resources and services.